Monte Azul, Brazil
Current Conditions -  °F | °C
As of 2:00 PM on Thursday 23 Oct 2014 (Local Time) from SBMK Reporting Station
Few Clouds Few Clouds  
Wind Chill: 86°   Ceiling: Unl
Heat Index: 86°   Visibility: 6mi
Dew Point: 55°   Wind: 7mph
Humidity: 35%   Direction: 60°ENE
Pressure: 30.06"   Gusts: NA
Location:  15.16°S, 42.87°W
Report Text: SBMK 231600Z 06006KT 360V120 9999 FEW040 30/13 Q1018
Loading
Personal Weather Stations






























Interactive Weather Map
Tropical Storm Tracking
New forecast layout! Learn more

10-Day Weather Forecast

Advertisements
Track Severe Weather on mobile